sensor_id;sensor_type;location;lat;lon;timestamp;P1;durP1;ratioP1;P2;durP2;ratioP2
21432;SDS011;18592;49.708;10.900;2022-07-21T00:00:06;4.68;;;4.28;;
21432;SDS011;18592;49.708;10.900;2022-07-21T00:02:09;5.10;;;4.05;;
21432;SDS011;18592;49.708;10.900;2022-07-21T00:04:11;6.45;;;4.38;;
21432;SDS011;18592;49.708;10.900;2022-07-21T00:06:13;4.20;;;3.80;;
21432;SDS011;18592;49.708;10.900;2022-07-21T00:08:16;4.57;;;4.18;;
21432;SDS011;18592;49.708;10.900;2022-07-21T00:10:20;4.40;;;4.05;;
21432;SDS011;18592;49.708;10.900;2022-07-21T00:12:23;4.47;;;4.07;;
21432;SDS011;18592;49.708;10.900;2022-07-21T00:14:25;4.38;;;3.97;;
21432;SDS011;18592;49.708;10.900;2022-07-21T00:16:26;5.10;;;4.18;;
21432;SDS011;18592;49.708;10.900;2022-07-21T00:18:30;4.25;;;3.85;;
21432;SDS011;18592;49.708;10.900;2022-07-21T00:20:32;5.32;;;4.82;;
21432;SDS011;18592;49.708;10.900;2022-07-21T00:22:35;5.32;;;4.40;;
21432;SDS011;18592;49.708;10.900;2022-07-21T00:24:37;4.60;;;4.20;;
21432;SDS011;18592;49.708;10.900;2022-07-21T00:26:38;5.57;;;4.78;;
21432;SDS011;18592;49.708;10.900;2022-07-21T00:28:40;4.60;;;4.20;;
21432;SDS011;18592;49.708;10.900;2022-07-21T00:30:42;5.97;;;4.28;;
21432;SDS011;18592;49.708;10.900;2022-07-21T00:32:44;5.18;;;4.45;;
21432;SDS011;18592;49.708;10.900;2022-07-21T00:34:46;4.65;;;4.25;;
21432;SDS011;18592;49.708;10.900;2022-07-21T00:36:47;4.80;;;4.15;;
21432;SDS011;18592;49.708;10.900;2022-07-21T00:38:49;4.55;;;4.10;;
21432;SDS011;18592;49.708;10.900;2022-07-21T00:40:51;4.63;;;4.20;;
21432;SDS011;18592;49.708;10.900;2022-07-21T00:42:54;4.85;;;4.32;;
21432;SDS011;18592;49.708;10.900;2022-07-21T00:44:58;4.85;;;4.30;;
21432;SDS011;18592;49.708;10.900;2022-07-21T00:47:00;4.80;;;4.25;;
21432;SDS011;18592;49.708;10.900;2022-07-21T00:49:03;5.18;;;4.47;;
21432;SDS011;18592;49.708;10.900;2022-07-21T00:51:07;5.20;;;4.18;;
21432;SDS011;18592;49.708;10.900;2022-07-21T00:53:09;6.10;;;4.25;;
21432;SDS011;18592;49.708;10.900;2022-07-21T00:55:12;6.32;;;4.70;;
21432;SDS011;18592;49.708;10.900;2022-07-21T00:57:16;4.45;;;4.05;;
21432;SDS011;18592;49.708;10.900;2022-07-21T00:59:18;5.38;;;4.55;;
21432;SDS011;18592;49.708;10.900;2022-07-21T01:01:20;4.25;;;3.75;;
21432;SDS011;18592;49.708;10.900;2022-07-21T01:03:21;5.30;;;4.72;;
21432;SDS011;18592;49.708;10.900;2022-07-21T01:05:23;4.53;;;4.13;;
21432;SDS011;18592;49.708;10.900;2022-07-21T01:07:25;4.68;;;4.22;;
21432;SDS011;18592;49.708;10.900;2022-07-21T01:09:27;4.30;;;3.90;;
21432;SDS011;18592;49.708;10.900;2022-07-21T01:11:30;4.88;;;4.43;;
21432;SDS011;18592;49.708;10.900;2022-07-21T01:13:32;4.40;;;4.00;;
21432;SDS011;18592;49.708;10.900;2022-07-21T01:15:34;4.95;;;4.30;;
21432;SDS011;18592;49.708;10.900;2022-07-21T01:17:36;6.38;;;4.00;;
21432;SDS011;18592;49.708;10.900;2022-07-21T01:19:38;5.18;;;4.63;;
21432;SDS011;18592;49.708;10.900;2022-07-21T01:21:41;5.88;;;4.30;;
21432;SDS011;18592;49.708;10.900;2022-07-21T01:23:45;4.85;;;4.45;;
21432;SDS011;18592;49.708;10.900;2022-07-21T01:25:47;5.85;;;4.40;;
21432;SDS011;18592;49.708;10.900;2022-07-21T01:27:50;6.40;;;4.53;;
21432;SDS011;18592;49.708;10.900;2022-07-21T01:29:52;6.22;;;4.90;;
21432;SDS011;18592;49.708;10.900;2022-07-21T01:31:54;5.43;;;4.28;;
21432;SDS011;18592;49.708;10.900;2022-07-21T01:33:56;5.18;;;4.68;;
21432;SDS011;18592;49.708;10.900;2022-07-21T01:35:58;4.90;;;4.40;;
21432;SDS011;18592;49.708;10.900;2022-07-21T01:37:59;5.10;;;4.60;;
21432;SDS011;18592;49.708;10.900;2022-07-21T01:40:03;5.32;;;4.68;;
21432;SDS011;18592;49.708;10.900;2022-07-21T01:42:25;5.15;;;4.65;;
21432;SDS011;18592;49.708;10.900;2022-07-21T01:44:28;5.10;;;4.32;;
21432;SDS011;18592;49.708;10.900;2022-07-21T01:46:31;4.90;;;4.50;;
21432;SDS011;18592;49.708;10.900;2022-07-21T01:48:42;4.78;;;4.30;;
21432;SDS011;18592;49.708;10.900;2022-07-21T01:50:44;5.15;;;4.60;;
21432;SDS011;18592;49.708;10.900;2022-07-21T01:52:46;4.88;;;4.47;;
21432;SDS011;18592;49.708;10.900;2022-07-21T01:54:48;6.28;;;4.50;;
21432;SDS011;18592;49.708;10.900;2022-07-21T01:56:53;5.03;;;4.53;;
21432;SDS011;18592;49.708;10.900;2022-07-21T01:58:55;4.97;;;4.38;;
21432;SDS011;18592;49.708;10.900;2022-07-21T02:00:57;6.32;;;4.90;;
21432;SDS011;18592;49.708;10.900;2022-07-21T02:03:00;5.60;;;4.75;;
21432;SDS011;18592;49.708;10.900;2022-07-21T02:05:01;5.22;;;4.60;;
21432;SDS011;18592;49.708;10.900;2022-07-21T02:07:06;4.65;;;4.25;;
21432;SDS011;18592;49.708;10.900;2022-07-21T02:09:07;5.07;;;4.57;;
21432;SDS011;18592;49.708;10.900;2022-07-21T02:11:11;5.18;;;4.70;;
21432;SDS011;18592;49.708;10.900;2022-07-21T02:13:14;6.47;;;4.72;;
21432;SDS011;18592;49.708;10.900;2022-07-21T02:15:16;5.03;;;4.25;;
21432;SDS011;18592;49.708;10.900;2022-07-21T02:17:18;5.95;;;4.97;;
21432;SDS011;18592;49.708;10.900;2022-07-21T02:19:19;5.20;;;4.22;;
21432;SDS011;18592;49.708;10.900;2022-07-21T02:21:21;5.20;;;4.70;;
21432;SDS011;18592;49.708;10.900;2022-07-21T02:23:23;6.18;;;4.72;;
21432;SDS011;18592;49.708;10.900;2022-07-21T02:25:26;5.28;;;4.78;;
21432;SDS011;18592;49.708;10.900;2022-07-21T02:27:28;5.78;;;4.95;;
21432;SDS011;18592;49.708;10.900;2022-07-21T02:29:29;5.70;;;5.07;;
21432;SDS011;18592;49.708;10.900;2022-07-21T02:31:31;6.03;;;4.80;;
21432;SDS011;18592;49.708;10.900;2022-07-21T02:33:33;6.15;;;5.03;;
21432;SDS011;18592;49.708;10.900;2022-07-21T02:35:35;6.43;;;5.55;;
21432;SDS011;18592;49.708;10.900;2022-07-21T02:37:37;6.72;;;5.45;;
21432;SDS011;18592;49.708;10.900;2022-07-21T02:39:39;6.10;;;5.15;;
21432;SDS011;18592;49.708;10.900;2022-07-21T02:41:42;6.88;;;5.22;;
21432;SDS011;18592;49.708;10.900;2022-07-21T02:43:44;5.72;;;5.22;;
21432;SDS011;18592;49.708;10.900;2022-07-21T02:45:45;5.88;;;5.10;;
21432;SDS011;18592;49.708;10.900;2022-07-21T02:49:57;6.93;;;5.82;;
21432;SDS011;18592;49.708;10.900;2022-07-21T02:51:59;5.97;;;5.45;;
21432;SDS011;18592;49.708;10.900;2022-07-21T02:54:01;5.75;;;5.20;;
21432;SDS011;18592;49.708;10.900;2022-07-21T02:56:03;5.93;;;5.43;;
21432;SDS011;18592;49.708;10.900;2022-07-21T03:00:30;8.38;;;6.00;;
21432;SDS011;18592;49.708;10.900;2022-07-21T03:02:32;6.68;;;5.93;;
21432;SDS011;18592;49.708;10.900;2022-07-21T03:04:33;6.40;;;5.90;;
21432;SDS011;18592;49.708;10.900;2022-07-21T03:06:35;6.75;;;5.90;;
21432;SDS011;18592;49.708;10.900;2022-07-21T03:08:38;6.35;;;5.75;;
21432;SDS011;18592;49.708;10.900;2022-07-21T03:10:40;6.63;;;5.88;;
21432;SDS011;18592;49.708;10.900;2022-07-21T03:12:42;7.55;;;6.10;;
21432;SDS011;18592;49.708;10.900;2022-07-21T03:14:44;6.32;;;5.72;;
21432;SDS011;18592;49.708;10.900;2022-07-21T03:16:46;7.07;;;6.30;;
21432;SDS011;18592;49.708;10.900;2022-07-21T03:18:48;6.97;;;5.75;;
21432;SDS011;18592;49.708;10.900;2022-07-21T03:20:50;7.38;;;6.45;;
21432;SDS011;18592;49.708;10.900;2022-07-21T03:22:52;7.55;;;6.85;;
21432;SDS011;18592;49.708;10.900;2022-07-21T03:24:54;6.40;;;5.90;;
21432;SDS011;18592;49.708;10.900;2022-07-21T03:26:56;7.07;;;6.40;;
21432;SDS011;18592;49.708;10.900;2022-07-21T03:29:04;7.40;;;6.70;;
21432;SDS011;18592;49.708;10.900;2022-07-21T03:31:06;7.03;;;6.40;;
21432;SDS011;18592;49.708;10.900;2022-07-21T03:33:08;6.63;;;6.03;;
21432;SDS011;18592;49.708;10.900;2022-07-21T03:35:10;5.97;;;5.40;;
21432;SDS011;18592;49.708;10.900;2022-07-21T03:37:13;7.05;;;6.35;;
21432;SDS011;18592;49.708;10.900;2022-07-21T03:39:16;7.32;;;6.50;;
21432;SDS011;18592;49.708;10.900;2022-07-21T03:41:18;6.18;;;5.57;;
21432;SDS011;18592;49.708;10.900;2022-07-21T03:43:20;6.18;;;5.57;;
21432;SDS011;18592;49.708;10.900;2022-07-21T03:45:22;6.35;;;5.82;;
21432;SDS011;18592;49.708;10.900;2022-07-21T03:47:24;6.07;;;5.47;;
21432;SDS011;18592;49.708;10.900;2022-07-21T03:49:26;6.28;;;5.65;;
21432;SDS011;18592;49.708;10.900;2022-07-21T03:51:28;6.20;;;5.60;;
21432;SDS011;18592;49.708;10.900;2022-07-21T03:53:29;7.32;;;6.05;;
21432;SDS011;18592;49.708;10.900;2022-07-21T03:55:31;6.40;;;5.80;;
21432;SDS011;18592;49.708;10.900;2022-07-21T03:57:38;6.65;;;6.03;;
21432;SDS011;18592;49.708;10.900;2022-07-21T03:59:41;7.05;;;6.35;;
21432;SDS011;18592;49.708;10.900;2022-07-21T04:01:43;8.07;;;6.03;;
21432;SDS011;18592;49.708;10.900;2022-07-21T04:03:45;8.50;;;6.13;;
21432;SDS011;18592;49.708;10.900;2022-07-21T04:05:47;6.63;;;6.03;;
21432;SDS011;18592;49.708;10.900;2022-07-21T04:07:50;5.72;;;5.22;;
21432;SDS011;18592;49.708;10.900;2022-07-21T04:09:52;6.63;;;6.03;;
21432;SDS011;18592;49.708;10.900;2022-07-21T04:11:58;6.85;;;6.00;;
21432;SDS011;18592;49.708;10.900;2022-07-21T04:13:59;8.65;;;6.43;;
21432;SDS011;18592;49.708;10.900;2022-07-21T04:16:01;6.72;;;6.13;;
21432;SDS011;18592;49.708;10.900;2022-07-21T04:18:03;5.82;;;5.32;;
21432;SDS011;18592;49.708;10.900;2022-07-21T04:20:06;5.93;;;5.43;;
21432;SDS011;18592;49.708;10.900;2022-07-21T04:22:09;6.95;;;6.25;;
21432;SDS011;18592;49.708;10.900;2022-07-21T04:24:11;6.35;;;5.75;;
21432;SDS011;18592;49.708;10.900;2022-07-21T04:26:12;7.80;;;6.38;;
21432;SDS011;18592;49.708;10.900;2022-07-21T04:28:14;6.50;;;5.88;;
21432;SDS011;18592;49.708;10.900;2022-07-21T04:30:19;6.25;;;5.65;;
21432;SDS011;18592;49.708;10.900;2022-07-21T04:32:23;6.13;;;5.63;;
21432;SDS011;18592;49.708;10.900;2022-07-21T04:34:24;6.55;;;5.95;;
21432;SDS011;18592;49.708;10.900;2022-07-21T04:36:27;8.38;;;6.30;;
21432;SDS011;18592;49.708;10.900;2022-07-21T04:38:28;6.70;;;6.10;;
21432;SDS011;18592;49.708;10.900;2022-07-21T04:40:30;6.82;;;6.13;;
21432;SDS011;18592;49.708;10.900;2022-07-21T04:42:32;7.05;;;6.35;;
21432;SDS011;18592;49.708;10.900;2022-07-21T04:44:35;7.40;;;6.40;;
21432;SDS011;18592;49.708;10.900;2022-07-21T04:46:38;7.38;;;6.30;;
21432;SDS011;18592;49.708;10.900;2022-07-21T04:48:40;7.53;;;6.78;;
21432;SDS011;18592;49.708;10.900;2022-07-21T04:50:42;7.35;;;6.57;;
21432;SDS011;18592;49.708;10.900;2022-07-21T04:52:43;7.30;;;6.53;;
21432;SDS011;18592;49.708;10.900;2022-07-21T04:54:46;7.15;;;6.28;;
21432;SDS011;18592;49.708;10.900;2022-07-21T04:56:48;7.75;;;6.95;;
21432;SDS011;18592;49.708;10.900;2022-07-21T04:58:50;8.32;;;7.15;;
21432;SDS011;18592;49.708;10.900;2022-07-21T05:00:54;8.15;;;6.78;;
21432;SDS011;18592;49.708;10.900;2022-07-21T05:02:55;7.90;;;7.10;;
21432;SDS011;18592;49.708;10.900;2022-07-21T05:04:58;8.55;;;7.13;;
21432;SDS011;18592;49.708;10.900;2022-07-21T05:06:59;8.15;;;7.45;;
21432;SDS011;18592;49.708;10.900;2022-07-21T05:09:02;7.25;;;6.53;;
21432;SDS011;18592;49.708;10.900;2022-07-21T05:11:04;8.30;;;7.35;;
21432;SDS011;18592;49.708;10.900;2022-07-21T05:13:06;8.65;;;7.10;;
21432;SDS011;18592;49.708;10.900;2022-07-21T05:15:09;8.82;;;7.68;;
21432;SDS011;18592;49.708;10.900;2022-07-21T05:17:13;7.40;;;6.65;;
21432;SDS011;18592;49.708;10.900;2022-07-21T05:19:17;8.95;;;8.05;;
21432;SDS011;18592;49.708;10.900;2022-07-21T05:21:19;8.38;;;7.57;;
21432;SDS011;18592;49.708;10.900;2022-07-21T05:23:20;8.50;;;7.63;;
21432;SDS011;18592;49.708;10.900;2022-07-21T05:25:22;9.05;;;7.97;;
21432;SDS011;18592;49.708;10.900;2022-07-21T05:27:24;9.27;;;8.20;;
21432;SDS011;18592;49.708;10.900;2022-07-21T05:29:26;9.23;;;8.32;;
21432;SDS011;18592;49.708;10.900;2022-07-21T05:31:30;10.60;;;8.05;;
21432;SDS011;18592;49.708;10.900;2022-07-21T05:33:32;9.20;;;8.27;;
21432;SDS011;18592;49.708;10.900;2022-07-21T05:35:34;9.32;;;8.43;;
21432;SDS011;18592;49.708;10.900;2022-07-21T05:37:37;10.00;;;8.77;;
21432;SDS011;18592;49.708;10.900;2022-07-21T05:39:40;8.82;;;7.93;;
21432;SDS011;18592;49.708;10.900;2022-07-21T05:41:41;9.65;;;8.75;;
21432;SDS011;18592;49.708;10.900;2022-07-21T05:43:43;9.27;;;8.38;;
21432;SDS011;18592;49.708;10.900;2022-07-21T05:45:45;10.27;;;8.88;;
21432;SDS011;18592;49.708;10.900;2022-07-21T05:47:47;9.30;;;8.40;;
21432;SDS011;18592;49.708;10.900;2022-07-21T05:49:51;10.25;;;9.25;;
21432;SDS011;18592;49.708;10.900;2022-07-21T05:51:54;9.45;;;8.55;;
21432;SDS011;18592;49.708;10.900;2022-07-21T05:53:56;10.85;;;8.82;;
21432;SDS011;18592;49.708;10.900;2022-07-21T05:55:57;9.68;;;8.77;;
21432;SDS011;18592;49.708;10.900;2022-07-21T05:58:02;10.05;;;9.07;;
21432;SDS011;18592;49.708;10.900;2022-07-21T06:00:11;10.43;;;9.23;;
21432;SDS011;18592;49.708;10.900;2022-07-21T06:02:14;9.88;;;8.82;;
21432;SDS011;18592;49.708;10.900;2022-07-21T06:04:15;9.63;;;8.73;;
21432;SDS011;18592;49.708;10.900;2022-07-21T06:06:18;9.85;;;8.85;;
21432;SDS011;18592;49.708;10.900;2022-07-21T06:08:21;10.35;;;9.35;;
21432;SDS011;18592;49.708;10.900;2022-07-21T06:10:23;10.52;;;9.45;;
21432;SDS011;18592;49.708;10.900;2022-07-21T06:12:29;10.32;;;9.32;;
21432;SDS011;18592;49.708;10.900;2022-07-21T06:14:31;10.65;;;9.65;;
21432;SDS011;18592;49.708;10.900;2022-07-21T06:16:33;10.90;;;9.70;;
21432;SDS011;18592;49.708;10.900;2022-07-21T06:18:34;9.63;;;8.82;;
21432;SDS011;18592;49.708;10.900;2022-07-21T06:20:36;10.60;;;9.43;;
21432;SDS011;18592;49.708;10.900;2022-07-21T06:22:38;10.50;;;9.50;;
21432;SDS011;18592;49.708;10.900;2022-07-21T06:24:40;9.90;;;9.00;;
21432;SDS011;18592;49.708;10.900;2022-07-21T06:26:42;9.90;;;8.98;;
21432;SDS011;18592;49.708;10.900;2022-07-21T06:28:43;11.32;;;10.10;;
21432;SDS011;18592;49.708;10.900;2022-07-21T06:30:45;10.40;;;9.40;;
21432;SDS011;18592;49.708;10.900;2022-07-21T06:32:47;10.77;;;9.65;;
21432;SDS011;18592;49.708;10.900;2022-07-21T06:34:48;10.63;;;9.52;;
21432;SDS011;18592;49.708;10.900;2022-07-21T06:36:50;11.32;;;10.20;;
21432;SDS011;18592;49.708;10.900;2022-07-21T06:38:51;10.13;;;9.20;;
21432;SDS011;18592;49.708;10.900;2022-07-21T06:40:53;10.00;;;9.10;;
21432;SDS011;18592;49.708;10.900;2022-07-21T06:42:55;11.05;;;9.95;;
21432;SDS011;18592;49.708;10.900;2022-07-21T06:45:17;10.25;;;9.25;;
21432;SDS011;18592;49.708;10.900;2022-07-21T06:47:19;10.55;;;9.52;;
21432;SDS011;18592;49.708;10.900;2022-07-21T06:49:21;10.50;;;9.48;;
21432;SDS011;18592;49.708;10.900;2022-07-21T06:51:22;10.73;;;9.75;;
21432;SDS011;18592;49.708;10.900;2022-07-21T06:53:24;11.00;;;10.00;;
21432;SDS011;18592;49.708;10.900;2022-07-21T06:55:26;10.55;;;9.55;;
21432;SDS011;18592;49.708;10.900;2022-07-21T06:57:29;11.10;;;10.00;;
21432;SDS011;18592;49.708;10.900;2022-07-21T06:59:32;11.48;;;9.90;;
21432;SDS011;18592;49.708;10.900;2022-07-21T07:01:36;10.63;;;9.65;;
21432;SDS011;18592;49.708;10.900;2022-07-21T07:03:40;10.82;;;9.65;;
21432;SDS011;18592;49.708;10.900;2022-07-21T07:05:44;10.43;;;9.40;;
21432;SDS011;18592;49.708;10.900;2022-07-21T07:07:46;10.63;;;9.63;;
21432;SDS011;18592;49.708;10.900;2022-07-21T07:09:49;10.98;;;9.98;;
21432;SDS011;18592;49.708;10.900;2022-07-21T07:11:53;9.82;;;8.93;;
21432;SDS011;18592;49.708;10.900;2022-07-21T07:14:15;11.07;;;9.98;;
21432;SDS011;18592;49.708;10.900;2022-07-21T07:16:19;10.85;;;9.77;;
21432;SDS011;18592;49.708;10.900;2022-07-21T07:18:21;11.02;;;9.93;;
21432;SDS011;18592;49.708;10.900;2022-07-21T07:20:25;11.13;;;10.02;;
21432;SDS011;18592;49.708;10.900;2022-07-21T07:22:28;10.77;;;9.73;;
21432;SDS011;18592;49.708;10.900;2022-07-21T07:24:29;10.32;;;9.27;;
21432;SDS011;18592;49.708;10.900;2022-07-21T07:26:31;11.18;;;10.02;;
21432;SDS011;18592;49.708;10.900;2022-07-21T07:28:33;11.90;;;10.68;;
21432;SDS011;18592;49.708;10.900;2022-07-21T07:30:35;11.02;;;10.02;;
21432;SDS011;18592;49.708;10.900;2022-07-21T07:32:37;10.68;;;9.73;;
21432;SDS011;18592;49.708;10.900;2022-07-21T07:34:38;11.35;;;10.05;;
21432;SDS011;18592;49.708;10.900;2022-07-21T07:36:40;11.57;;;10.05;;
21432;SDS011;18592;49.708;10.900;2022-07-21T07:38:45;10.73;;;9.73;;
21432;SDS011;18592;49.708;10.900;2022-07-21T07:40:49;10.77;;;9.77;;
21432;SDS011;18592;49.708;10.900;2022-07-21T07:42:51;10.98;;;9.98;;
21432;SDS011;18592;49.708;10.900;2022-07-21T07:44:53;10.18;;;9.27;;
21432;SDS011;18592;49.708;10.900;2022-07-21T07:46:55;10.85;;;9.85;;
21432;SDS011;18592;49.708;10.900;2022-07-21T07:48:56;10.70;;;9.70;;
21432;SDS011;18592;49.708;10.900;2022-07-21T07:51:06;11.23;;;10.00;;
21432;SDS011;18592;49.708;10.900;2022-07-21T07:53:07;10.25;;;9.25;;
21432;SDS011;18592;49.708;10.900;2022-07-21T07:55:09;10.63;;;9.52;;
21432;SDS011;18592;49.708;10.900;2022-07-21T07:57:12;10.45;;;9.45;;
21432;SDS011;18592;49.708;10.900;2022-07-21T07:59:13;10.98;;;9.88;;
21432;SDS011;18592;49.708;10.900;2022-07-21T08:01:15;10.05;;;9.15;;
21432;SDS011;18592;49.708;10.900;2022-07-21T08:03:18;10.68;;;9.00;;
21432;SDS011;18592;49.708;10.900;2022-07-21T08:05:20;10.20;;;9.23;;
21432;SDS011;18592;49.708;10.900;2022-07-21T08:07:22;9.48;;;8.65;;
21432;SDS011;18592;49.708;10.900;2022-07-21T08:09:23;10.07;;;9.10;;
21432;SDS011;18592;49.708;10.900;2022-07-21T08:11:25;10.13;;;9.15;;
21432;SDS011;18592;49.708;10.900;2022-07-21T08:13:27;9.68;;;8.70;;
21432;SDS011;18592;49.708;10.900;2022-07-21T08:15:28;9.35;;;8.55;;
21432;SDS011;18592;49.708;10.900;2022-07-21T08:17:30;9.15;;;8.35;;
21432;SDS011;18592;49.708;10.900;2022-07-21T08:19:32;9.55;;;8.65;;
21432;SDS011;18592;49.708;10.900;2022-07-21T08:21:34;9.57;;;8.68;;
21432;SDS011;18592;49.708;10.900;2022-07-21T08:23:57;9.10;;;8.15;;
21432;SDS011;18592;49.708;10.900;2022-07-21T08:26:05;8.98;;;8.18;;
21432;SDS011;18592;49.708;10.900;2022-07-21T08:28:07;9.30;;;8.40;;
21432;SDS011;18592;49.708;10.900;2022-07-21T08:30:09;9.20;;;8.30;;
21432;SDS011;18592;49.708;10.900;2022-07-21T08:32:11;9.18;;;8.10;;
21432;SDS011;18592;49.708;10.900;2022-07-21T08:34:13;8.57;;;7.85;;
21432;SDS011;18592;49.708;10.900;2022-07-21T08:36:15;9.52;;;8.63;;
21432;SDS011;18592;49.708;10.900;2022-07-21T08:38:17;9.15;;;8.35;;
21432;SDS011;18592;49.708;10.900;2022-07-21T08:40:20;9.20;;;8.32;;
21432;SDS011;18592;49.708;10.900;2022-07-21T08:42:24;8.77;;;8.00;;
21432;SDS011;18592;49.708;10.900;2022-07-21T08:44:28;9.20;;;8.38;;
21432;SDS011;18592;49.708;10.900;2022-07-21T08:46:29;8.30;;;7.60;;
21432;SDS011;18592;49.708;10.900;2022-07-21T08:48:34;8.38;;;7.68;;
21432;SDS011;18592;49.708;10.900;2022-07-21T08:50:38;8.63;;;7.85;;
21432;SDS011;18592;49.708;10.900;2022-07-21T08:52:40;9.73;;;8.75;;
21432;SDS011;18592;49.708;10.900;2022-07-21T08:54:42;8.93;;;8.05;;
21432;SDS011;18592;49.708;10.900;2022-07-21T08:56:44;9.05;;;8.15;;
21432;SDS011;18592;49.708;10.900;2022-07-21T08:58:46;8.50;;;7.80;;
21432;SDS011;18592;49.708;10.900;2022-07-21T09:00:48;9.02;;;8.23;;
21432;SDS011;18592;49.708;10.900;2022-07-21T09:03:07;8.15;;;7.45;;
21432;SDS011;18592;49.708;10.900;2022-07-21T09:05:10;7.97;;;7.18;;
21432;SDS011;18592;49.708;10.900;2022-07-21T09:07:12;9.02;;;7.03;;
21432;SDS011;18592;49.708;10.900;2022-07-21T09:09:17;8.13;;;7.32;;
21432;SDS011;18592;49.708;10.900;2022-07-21T09:13:29;7.13;;;6.30;;
21432;SDS011;18592;49.708;10.900;2022-07-21T09:15:31;7.80;;;7.20;;
21432;SDS011;18592;49.708;10.900;2022-07-21T09:17:34;7.30;;;6.60;;
21432;SDS011;18592;49.708;10.900;2022-07-21T09:19:55;7.63;;;5.88;;
21432;SDS011;18592;49.708;10.900;2022-07-21T09:21:58;6.82;;;6.22;;
21432;SDS011;18592;49.708;10.900;2022-07-21T09:24:24;7.15;;;6.55;;
21432;SDS011;18592;49.708;10.900;2022-07-21T09:26:30;7.40;;;6.80;;
21432;SDS011;18592;49.708;10.900;2022-07-21T09:28:32;7.10;;;6.30;;
21432;SDS011;18592;49.708;10.900;2022-07-21T09:30:46;8.13;;;7.32;;
21432;SDS011;18592;49.708;10.900;2022-07-21T09:33:17;8.02;;;6.97;;
21432;SDS011;18592;49.708;10.900;2022-07-21T09:35:20;7.05;;;6.45;;
21432;SDS011;18592;49.708;10.900;2022-07-21T09:37:22;7.25;;;6.55;;
21432;SDS011;18592;49.708;10.900;2022-07-21T09:39:40;7.15;;;6.55;;
21432;SDS011;18592;49.708;10.900;2022-07-21T09:41:42;7.40;;;6.80;;
21432;SDS011;18592;49.708;10.900;2022-07-21T09:43:45;6.70;;;6.10;;
21432;SDS011;18592;49.708;10.900;2022-07-21T09:45:49;6.40;;;5.80;;
21432;SDS011;18592;49.708;10.900;2022-07-21T09:47:51;6.82;;;6.22;;
21432;SDS011;18592;49.708;10.900;2022-07-21T09:49:54;6.70;;;6.10;;
21432;SDS011;18592;49.708;10.900;2022-07-21T09:52:20;6.57;;;6.07;;
21432;SDS011;18592;49.708;10.900;2022-07-21T09:54:23;6.55;;;5.95;;
21432;SDS011;18592;49.708;10.900;2022-07-21T09:56:26;6.70;;;6.10;;
21432;SDS011;18592;49.708;10.900;2022-07-21T09:58:30;6.95;;;6.35;;
21432;SDS011;18592;49.708;10.900;2022-07-21T10:00:32;6.38;;;5.85;;
21432;SDS011;18592;49.708;10.900;2022-07-21T10:02:34;7.18;;;6.57;;
21432;SDS011;18592;49.708;10.900;2022-07-21T10:04:37;6.63;;;6.10;;
21432;SDS011;18592;49.708;10.900;2022-07-21T10:06:59;6.75;;;6.15;;
21432;SDS011;18592;49.708;10.900;2022-07-21T10:09:04;7.03;;;6.32;;
21432;SDS011;18592;49.708;10.900;2022-07-21T10:11:12;6.20;;;5.70;;
21432;SDS011;18592;49.708;10.900;2022-07-21T10:13:19;6.40;;;5.90;;
21432;SDS011;18592;49.708;10.900;2022-07-21T10:15:21;6.10;;;5.60;;
21432;SDS011;18592;49.708;10.900;2022-07-21T10:17:23;5.78;;;5.38;;
21432;SDS011;18592;49.708;10.900;2022-07-21T10:19:27;6.20;;;5.70;;
21432;SDS011;18592;49.708;10.900;2022-07-21T10:24:11;5.95;;;5.45;;
21432;SDS011;18592;49.708;10.900;2022-07-21T10:26:14;5.68;;;5.22;;
21432;SDS011;18592;49.708;10.900;2022-07-21T10:28:19;5.40;;;4.82;;
21432;SDS011;18592;49.708;10.900;2022-07-21T10:30:36;5.32;;;4.82;;
21432;SDS011;18592;49.708;10.900;2022-07-21T10:32:48;5.32;;;4.82;;
21432;SDS011;18592;49.708;10.900;2022-07-21T10:34:51;5.43;;;5.03;;
21432;SDS011;18592;49.708;10.900;2022-07-21T10:36:54;6.18;;;4.90;;
21432;SDS011;18592;49.708;10.900;2022-07-21T10:39:11;5.78;;;5.18;;
21432;SDS011;18592;49.708;10.900;2022-07-21T10:41:35;5.78;;;5.18;;
21432;SDS011;18592;49.708;10.900;2022-07-21T10:43:39;5.18;;;4.78;;
21432;SDS011;18592;49.708;10.900;2022-07-21T10:45:49;5.05;;;4.65;;
21432;SDS011;18592;49.708;10.900;2022-07-21T10:47:52;5.70;;;5.20;;
21432;SDS011;18592;49.708;10.900;2022-07-21T10:49:57;4.88;;;4.47;;
21432;SDS011;18592;49.708;10.900;2022-07-21T10:52:00;4.97;;;4.57;;
21432;SDS011;18592;49.708;10.900;2022-07-21T10:54:18;5.07;;;4.32;;
21432;SDS011;18592;49.708;10.900;2022-07-21T10:56:28;4.80;;;4.45;;
21432;SDS011;18592;49.708;10.900;2022-07-21T10:58:41;4.90;;;4.40;;
21432;SDS011;18592;49.708;10.900;2022-07-21T11:00:43;4.72;;;4.32;;
21432;SDS011;18592;49.708;10.900;2022-07-21T11:02:51;4.60;;;4.20;;
21432;SDS011;18592;49.708;10.900;2022-07-21T11:05:05;4.57;;;4.05;;
21432;SDS011;18592;49.708;10.900;2022-07-21T11:07:07;5.00;;;4.53;;
21432;SDS011;18592;49.708;10.900;2022-07-21T11:09:16;4.95;;;4.45;;
21432;SDS011;18592;49.708;10.900;2022-07-21T11:11:22;5.07;;;4.63;;
21432;SDS011;18592;49.708;10.900;2022-07-21T11:13:26;4.20;;;3.75;;
21432;SDS011;18592;49.708;10.900;2022-07-21T11:17:48;4.10;;;3.63;;
21432;SDS011;18592;49.708;10.900;2022-07-21T11:19:50;4.47;;;4.18;;
21432;SDS011;18592;49.708;10.900;2022-07-21T11:21:54;4.15;;;3.85;;
21432;SDS011;18592;49.708;10.900;2022-07-21T11:23:57;4.55;;;4.15;;
21432;SDS011;18592;49.708;10.900;2022-07-21T11:25:59;4.10;;;3.80;;
21432;SDS011;18592;49.708;10.900;2022-07-21T11:28:01;4.45;;;4.07;;
21432;SDS011;18592;49.708;10.900;2022-07-21T11:30:04;4.10;;;3.80;;
21432;SDS011;18592;49.708;10.900;2022-07-21T11:32:08;4.60;;;4.20;;
21432;SDS011;18592;49.708;10.900;2022-07-21T11:34:11;4.43;;;4.05;;
21432;SDS011;18592;49.708;10.900;2022-07-21T11:36:29;4.43;;;4.03;;
21432;SDS011;18592;49.708;10.900;2022-07-21T11:38:33;4.35;;;3.95;;
21432;SDS011;18592;49.708;10.900;2022-07-21T11:40:35;3.80;;;3.60;;
21432;SDS011;18592;49.708;10.900;2022-07-21T11:42:37;4.00;;;3.70;;
21432;SDS011;18592;49.708;10.900;2022-07-21T11:44:40;4.60;;;3.85;;
21432;SDS011;18592;49.708;10.900;2022-07-21T11:46:47;4.03;;;3.65;;
21432;SDS011;18592;49.708;10.900;2022-07-21T11:49:00;4.25;;;3.90;;
21432;SDS011;18592;49.708;10.900;2022-07-21T11:51:05;4.43;;;4.03;;
21432;SDS011;18592;49.708;10.900;2022-07-21T11:53:07;3.85;;;3.53;;
21432;SDS011;18592;49.708;10.900;2022-07-21T11:55:09;3.88;;;3.58;;
21432;SDS011;18592;49.708;10.900;2022-07-21T11:57:14;3.85;;;3.55;;
21432;SDS011;18592;49.708;10.900;2022-07-21T11:59:17;3.92;;;3.60;;
21432;SDS011;18592;49.708;10.900;2022-07-21T12:01:19;3.78;;;3.47;;
21432;SDS011;18592;49.708;10.900;2022-07-21T12:03:22;3.70;;;3.50;;
21432;SDS011;18592;49.708;10.900;2022-07-21T12:05:24;3.88;;;3.58;;
21432;SDS011;18592;49.708;10.900;2022-07-21T12:07:34;4.05;;;3.75;;
21432;SDS011;18592;49.708;10.900;2022-07-21T12:09:42;4.03;;;3.63;;
21432;SDS011;18592;49.708;10.900;2022-07-21T12:11:52;3.28;;;3.08;;
21432;SDS011;18592;49.708;10.900;2022-07-21T12:13:54;3.80;;;3.50;;
21432;SDS011;18592;49.708;10.900;2022-07-21T12:15:58;3.45;;;3.22;;
21432;SDS011;18592;49.708;10.900;2022-07-21T12:18:06;3.45;;;3.17;;
21432;SDS011;18592;49.708;10.900;2022-07-21T12:20:10;3.75;;;3.45;;
21432;SDS011;18592;49.708;10.900;2022-07-21T12:22:13;4.28;;;3.88;;